Fort Smith, Canada
Current Conditions -  °F | °C
As of 12:00 PM on Thursday 30 Oct 2014 (Local Time) from CYSM Reporting Station
Overcast Overcast  
Wind Chill: 20°   Ceiling: 4500
Heat Index: 30°   Visibility: 15mi
Dew Point: 27°   Wind: 14mph
Humidity: 86%   Direction: 160°SSE
Pressure: 30.16"   Gusts: 24mph
Location:  60.02°N, 111.89°W
Report Text: CYSM 301800Z 16012G21KT 15SM FEW018 OVC045 M01/M03 A3016 RMKSF2SC6 SLP229
Loading
Personal Weather Stations






























Interactive Weather Map
Tropical Storm Tracking
New forecast layout! Learn more

10-Day Weather Forecast

Advertisements
Track Severe Weather on mobile